createdAt,value
2023-10-10T00:00:27.912Z,979.39
2023-10-10T00:01:27.897Z,979.37
2023-10-10T00:02:27.909Z,979.41
2023-10-10T00:03:27.900Z,979.38
2023-10-10T00:04:27.783Z,979.36
2023-10-10T00:05:27.862Z,979.43
2023-10-10T00:06:27.763Z,979.46
2023-10-10T00:07:27.753Z,979.44
2023-10-10T00:08:27.758Z,979.46
2023-10-10T00:09:27.742Z,979.48
2023-10-10T00:10:27.726Z,979.50
2023-10-10T00:11:27.825Z,979.49
2023-10-10T00:12:27.740Z,979.53
2023-10-10T00:13:27.709Z,979.50
2023-10-10T00:14:27.716Z,979.51
2023-10-10T00:15:27.679Z,979.50
2023-10-10T00:16:27.753Z,979.51
2023-10-10T00:17:27.738Z,979.49
2023-10-10T00:18:27.650Z,979.44
2023-10-10T00:19:27.642Z,979.40
2023-10-10T00:20:27.668Z,979.43
2023-10-10T00:21:27.626Z,979.43
2023-10-10T00:22:27.616Z,979.42
2023-10-10T00:23:27.620Z,979.35
2023-10-10T00:24:27.598Z,979.34
2023-10-10T00:25:27.592Z,979.33
2023-10-10T00:26:27.702Z,979.28
2023-10-10T00:27:27.571Z,979.23
2023-10-10T00:28:27.557Z,979.28
2023-10-10T00:29:27.889Z,979.27
2023-10-10T00:30:27.538Z,979.28
2023-10-10T00:31:27.582Z,979.26
2023-10-10T00:32:27.691Z,979.28
2023-10-10T00:33:27.510Z,979.25
2023-10-10T00:34:27.500Z,979.30
2023-10-10T00:35:27.568Z,979.29
2023-10-10T00:36:27.481Z,979.30
2023-10-10T00:37:27.469Z,979.28
2023-10-10T00:38:27.509Z,979.28
2023-10-10T00:39:27.455Z,979.29
2023-10-10T00:40:27.444Z,979.26
2023-10-10T00:41:27.477Z,979.30
2023-10-10T00:42:27.432Z,979.33
2023-10-10T00:43:27.414Z,979.31
2023-10-10T00:44:27.516Z,979.30
2023-10-10T00:45:27.401Z,979.31
2023-10-10T00:46:27.421Z,979.34
2023-10-10T00:47:27.600Z,979.34
2023-10-10T00:48:27.412Z,979.37
2023-10-10T00:49:27.365Z,979.40
2023-10-10T00:50:27.382Z,979.39
2023-10-10T00:51:27.335Z,979.40
2023-10-10T00:52:27.330Z,979.43
2023-10-10T00:53:27.402Z,979.41
2023-10-10T00:54:27.320Z,979.45
2023-10-10T00:55:27.298Z,979.46
2023-10-10T00:56:27.327Z,979.47
2023-10-10T00:57:27.277Z,979.46
2023-10-10T00:58:27.270Z,979.50
2023-10-10T00:59:27.359Z,979.49
2023-10-10T01:00:27.251Z,979.44
2023-10-10T01:01:27.289Z,979.48
2023-10-10T01:02:27.387Z,979.50
2023-10-10T01:03:27.447Z,979.47
2023-10-10T01:04:27.242Z,979.48
2023-10-10T01:05:27.229Z,979.47
2023-10-10T01:06:27.262Z,979.47
2023-10-10T01:07:27.272Z,979.49
2023-10-10T01:08:27.209Z,979.51
2023-10-10T01:09:27.164Z,979.47
2023-10-10T01:10:27.152Z,979.45
2023-10-10T01:11:27.192Z,979.45
2023-10-10T01:12:27.139Z,979.45
2023-10-10T01:13:27.123Z,979.45
2023-10-10T01:14:27.137Z,979.41
2023-10-10T01:15:27.120Z,979.40
2023-10-10T01:16:27.121Z,979.39
2023-10-10T01:17:27.154Z,979.37
2023-10-10T01:18:27.098Z,979.39
2023-10-10T01:19:27.066Z,979.41
2023-10-10T01:20:27.185Z,979.40
2023-10-10T01:21:27.045Z,979.39
2023-10-10T01:22:27.034Z,979.37
2023-10-10T01:23:27.057Z,979.37
2023-10-10T01:24:27.022Z,979.36
2023-10-10T01:25:27.007Z,979.35
2023-10-10T01:26:27.029Z,979.34
2023-10-10T01:27:26.984Z,979.36
2023-10-10T01:28:26.978Z,979.35
2023-10-10T01:29:27.291Z,979.32
2023-10-10T01:30:26.958Z,979.35
2023-10-10T01:31:26.960Z,979.33
2023-10-10T01:32:26.967Z,979.33
2023-10-10T01:33:26.930Z,979.32
2023-10-10T01:34:26.920Z,979.34
2023-10-10T01:35:27.011Z,979.32
2023-10-10T01:36:26.926Z,979.30
2023-10-10T01:37:26.889Z,979.32
2023-10-10T01:38:26.907Z,979.30
2023-10-10T01:39:26.868Z,979.32
2023-10-10T01:40:26.861Z,979.34
2023-10-10T01:41:26.888Z,979.32
2023-10-10T01:42:26.845Z,979.32
2023-10-10T01:43:26.826Z,979.31
2023-10-10T01:44:26.859Z,979.30
2023-10-10T01:45:26.809Z,979.31
2023-10-10T01:46:26.823Z,979.30
2023-10-10T01:47:26.931Z,979.25
2023-10-10T01:48:26.807Z,979.27
2023-10-10T01:49:26.834Z,979.28
2023-10-10T01:50:27.055Z,979.25
2023-10-10T01:51:26.745Z,979.26
2023-10-10T01:52:26.772Z,979.28
2023-10-10T01:53:26.742Z,979.27
2023-10-10T01:54:26.717Z,979.31
2023-10-10T01:55:26.710Z,979.32
2023-10-10T01:56:26.716Z,979.27
2023-10-10T01:57:26.688Z,979.30
2023-10-10T01:58:26.678Z,979.31
2023-10-10T01:59:26.787Z,979.30
2023-10-10T02:00:26.741Z,979.28
2023-10-10T02:01:26.698Z,979.29
2023-10-10T02:02:26.771Z,979.31
2023-10-10T02:03:26.783Z,979.27
2023-10-10T02:04:26.619Z,979.24
2023-10-10T02:05:26.690Z,979.27
2023-10-10T02:06:26.609Z,979.25
2023-10-10T02:07:26.592Z,979.24
2023-10-10T02:08:26.632Z,979.23
2023-10-10T02:09:26.567Z,979.24
2023-10-10T02:10:26.559Z,979.22
2023-10-10T02:11:26.596Z,979.25
2023-10-10T02:12:26.544Z,979.27
2023-10-10T02:13:26.546Z,979.22
2023-10-10T02:14:26.810Z,979.19
2023-10-10T02:15:26.511Z,979.19
2023-10-10T02:16:26.554Z,979.16
2023-10-10T02:17:26.556Z,979.17
2023-10-10T02:18:26.481Z,979.12
2023-10-10T02:19:26.473Z,979.11
2023-10-10T02:20:26.519Z,979.10
2023-10-10T02:21:26.453Z,979.08
2023-10-10T02:22:26.442Z,979.11
2023-10-10T02:23:26.436Z,979.06
2023-10-10T02:24:26.461Z,979.07
2023-10-10T02:25:26.410Z,979.04
2023-10-10T02:26:26.491Z,979.04
2023-10-10T02:27:26.390Z,979.04
2023-10-10T02:28:26.391Z,979.05
2023-10-10T02:29:26.409Z,979.11
2023-10-10T02:30:26.374Z,979.11
2023-10-10T02:31:26.349Z,979.12
2023-10-10T02:32:26.426Z,979.11
2023-10-10T02:33:26.333Z,979.19
2023-10-10T02:34:26.323Z,979.12
2023-10-10T02:35:26.332Z,979.10
2023-10-10T02:36:26.299Z,979.17
2023-10-10T02:37:26.290Z,979.12
2023-10-10T02:38:26.301Z,979.16
2023-10-10T02:39:26.269Z,979.15
2023-10-10T02:40:26.280Z,979.15
2023-10-10T02:41:26.389Z,979.13
2023-10-10T02:42:26.239Z,979.11
2023-10-10T02:43:26.228Z,979.11
2023-10-10T02:44:26.243Z,979.17
2023-10-10T02:45:26.212Z,979.17
2023-10-10T02:46:26.237Z,979.14
2023-10-10T02:47:26.214Z,979.14
2023-10-10T02:48:26.180Z,979.17
2023-10-10T02:49:26.170Z,979.15
2023-10-10T02:50:26.205Z,979.14
2023-10-10T02:51:26.150Z,979.18
2023-10-10T02:52:26.141Z,979.15
2023-10-10T02:53:26.146Z,979.14
2023-10-10T02:54:26.113Z,979.15
2023-10-10T02:55:26.107Z,979.14
2023-10-10T02:56:26.139Z,979.10
2023-10-10T02:57:26.088Z,979.13
2023-10-10T02:58:26.073Z,979.15
2023-10-10T02:59:26.126Z,979.16
2023-10-10T03:00:26.062Z,979.14
2023-10-10T03:01:26.068Z,979.18
2023-10-10T03:02:26.060Z,979.17
2023-10-10T03:03:26.239Z,979.16
2023-10-10T03:04:26.040Z,979.16
2023-10-10T03:05:26.035Z,979.18
2023-10-10T03:06:25.995Z,979.16
2023-10-10T03:07:25.981Z,979.20
2023-10-10T03:08:25.999Z,979.19
2023-10-10T03:09:25.961Z,979.18
2023-10-10T03:10:25.952Z,979.15
2023-10-10T03:11:25.953Z,979.17
2023-10-10T03:12:25.962Z,979.19
2023-10-10T03:13:25.920Z,979.15
2023-10-10T03:14:25.970Z,979.17
2023-10-10T03:15:25.902Z,979.17
2023-10-10T03:16:25.944Z,979.18
2023-10-10T03:17:25.969Z,979.20
2023-10-10T03:18:25.873Z,979.18
2023-10-10T03:19:25.862Z,979.16
2023-10-10T03:20:25.868Z,979.18
2023-10-10T03:21:25.835Z,979.14
2023-10-10T03:22:25.824Z,979.14
2023-10-10T03:23:25.833Z,979.14
2023-10-10T03:24:25.810Z,979.15
2023-10-10T03:25:25.819Z,979.12
2023-10-10T03:26:25.876Z,979.11
2023-10-10T03:27:25.779Z,979.11
2023-10-10T03:28:25.786Z,979.09
2023-10-10T03:29:25.821Z,979.11
2023-10-10T03:30:25.755Z,979.11
2023-10-10T03:31:25.840Z,979.08
2023-10-10T03:32:25.839Z,979.08
2023-10-10T03:33:25.775Z,979.09
2023-10-10T03:34:25.709Z,979.08
2023-10-10T03:35:25.725Z,979.12
2023-10-10T03:36:25.682Z,979.11
2023-10-10T03:37:25.672Z,979.14
2023-10-10T03:38:25.747Z,979.13
2023-10-10T03:39:25.652Z,979.10
2023-10-10T03:40:25.640Z,979.10
2023-10-10T03:41:25.682Z,979.10
2023-10-10T03:42:25.618Z,979.13
2023-10-10T03:43:25.611Z,979.10
2023-10-10T03:44:25.647Z,979.06
2023-10-10T03:45:25.585Z,979.10
2023-10-10T03:46:25.631Z,979.07
2023-10-10T03:47:25.595Z,979.06
2023-10-10T03:48:25.559Z,979.07
2023-10-10T03:49:25.544Z,979.09
2023-10-10T03:50:25.664Z,979.05
2023-10-10T03:51:25.524Z,979.06
2023-10-10T03:52:25.553Z,979.05
2023-10-10T03:53:25.591Z,979.06
2023-10-10T03:55:25.487Z,979.07
2023-10-10T03:56:25.566Z,979.09
2023-10-10T03:57:25.464Z,979.05
2023-10-10T03:58:25.452Z,979.05
2023-10-10T03:59:25.612Z,979.05
2023-10-10T04:00:25.489Z,979.07
2023-10-10T04:01:25.441Z,979.04
2023-10-10T04:02:25.421Z,979.07
2023-10-10T04:03:25.533Z,979.06
2023-10-10T04:04:25.423Z,979.02
2023-10-10T04:06:25.374Z,979.03
2023-10-10T04:07:25.359Z,979.03
2023-10-10T04:08:25.393Z,979.04
2023-10-10T04:09:25.338Z,979.09
2023-10-10T04:10:25.341Z,979.08
2023-10-10T04:11:25.339Z,979.10
2023-10-10T04:12:25.306Z,979.10
2023-10-10T04:13:25.306Z,979.06
2023-10-10T04:14:25.354Z,979.07
2023-10-10T04:15:25.331Z,979.04
2023-10-10T04:16:25.379Z,979.03
2023-10-10T04:17:25.299Z,979.03
2023-10-10T04:18:25.258Z,979.05
2023-10-10T04:19:25.232Z,979.01
2023-10-10T04:20:25.236Z,979.02
2023-10-10T04:21:25.215Z,979.07
2023-10-10T04:22:25.216Z,979.04
2023-10-10T04:23:25.255Z,979.01
2023-10-10T04:24:25.179Z,979.04
2023-10-10T04:25:25.170Z,979.03
2023-10-10T04:26:25.238Z,979.00
2023-10-10T04:27:25.156Z,978.97
2023-10-10T04:28:25.138Z,979.01
2023-10-10T04:29:25.188Z,978.96
2023-10-10T04:30:25.114Z,979.01
2023-10-10T04:31:25.165Z,978.98
2023-10-10T04:32:25.181Z,978.97
2023-10-10T04:33:25.131Z,978.94
2023-10-10T04:34:25.078Z,978.96
2023-10-10T04:35:25.085Z,978.93
2023-10-10T04:36:25.065Z,978.95
2023-10-10T04:37:25.046Z,978.93
2023-10-10T04:38:25.080Z,978.91
2023-10-10T04:39:25.020Z,978.89
2023-10-10T04:40:25.009Z,978.91
2023-10-10T04:41:25.043Z,978.90
2023-10-10T04:42:24.992Z,978.95
2023-10-10T04:43:24.982Z,978.94
2023-10-10T04:44:24.988Z,978.94
2023-10-10T04:45:24.956Z,978.96
2023-10-10T04:46:24.955Z,978.98
2023-10-10T04:47:24.962Z,978.95
2023-10-10T04:48:24.987Z,978.93
2023-10-10T04:49:24.918Z,978.96
2023-10-10T04:50:24.956Z,978.97
2023-10-10T04:51:24.893Z,978.95
2023-10-10T04:52:24.884Z,978.97
2023-10-10T04:53:24.929Z,979.01
2023-10-10T04:54:24.858Z,978.94
2023-10-10T04:55:24.852Z,979.03
2023-10-10T04:56:24.879Z,979.00
2023-10-10T04:57:24.837Z,979.05
2023-10-10T04:58:24.832Z,979.05
2023-10-10T04:59:24.816Z,979.02
2023-10-10T05:00:24.807Z,979.07
2023-10-10T05:01:24.841Z,979.06
2023-10-10T05:02:24.804Z,979.09
2023-10-10T05:03:24.838Z,979.09
2023-10-10T05:04:24.876Z,979.08
2023-10-10T05:05:24.771Z,979.07
2023-10-10T05:06:24.747Z,979.09
2023-10-10T05:07:24.723Z,979.07
2023-10-10T05:08:24.809Z,979.07
2023-10-10T05:09:24.702Z,979.06
2023-10-10T05:10:24.696Z,979.03
2023-10-10T05:11:24.724Z,979.04
2023-10-10T05:12:24.668Z,979.04
2023-10-10T05:13:24.662Z,979.01
2023-10-10T05:14:24.712Z,979.02
2023-10-10T05:15:24.648Z,979.02
2023-10-10T05:16:24.635Z,979.02
2023-10-10T05:17:24.709Z,979.02
2023-10-10T05:18:24.638Z,979.07
2023-10-10T05:19:24.594Z,979.05
2023-10-10T05:20:24.645Z,979.04
2023-10-10T05:21:24.576Z,979.03
2023-10-10T05:22:24.562Z,979.03
2023-10-10T05:23:24.564Z,979.05
2023-10-10T05:24:24.546Z,979.02
2023-10-10T05:25:24.892Z,979.06
2023-10-10T05:26:24.540Z,979.01
2023-10-10T05:27:24.508Z,979.00
2023-10-10T05:28:24.513Z,979.01
2023-10-10T05:29:24.529Z,979.01
2023-10-10T05:30:24.549Z,979.03
2023-10-10T05:31:24.487Z,979.02
2023-10-10T05:32:24.549Z,979.02
2023-10-10T05:33:24.471Z,979.01
2023-10-10T05:34:24.627Z,979.01
2023-10-10T05:35:24.454Z,979.03
2023-10-10T05:36:24.431Z,979.03
2023-10-10T05:37:24.400Z,979.03
2023-10-10T05:38:24.400Z,979.04
2023-10-10T05:39:24.382Z,979.05
2023-10-10T05:40:24.372Z,979.00
2023-10-10T05:41:24.404Z,978.99
2023-10-10T05:42:24.346Z,979.01
2023-10-10T05:43:24.336Z,979.01
2023-10-10T05:44:24.345Z,979.01
2023-10-10T05:45:24.316Z,979.02
2023-10-10T05:46:24.353Z,979.05
2023-10-10T05:47:24.322Z,979.06
2023-10-10T05:48:24.319Z,979.06
2023-10-10T05:49:24.286Z,979.06
2023-10-10T05:50:24.336Z,979.05
2023-10-10T05:51:24.255Z,979.04
2023-10-10T05:52:24.266Z,979.05
2023-10-10T05:53:24.264Z,979.04
2023-10-10T05:54:24.220Z,979.07
2023-10-10T05:55:24.208Z,979.07
2023-10-10T05:56:24.294Z,979.09
2023-10-10T05:57:24.187Z,979.06
2023-10-10T05:58:24.178Z,979.11
2023-10-10T05:59:24.184Z,979.11
2023-10-10T06:00:24.154Z,979.11
2023-10-10T06:01:24.168Z,979.14
2023-10-10T06:02:24.234Z,979.14
2023-10-10T06:03:24.203Z,979.19
2023-10-10T06:04:24.166Z,979.19
2023-10-10T06:05:24.161Z,979.19
2023-10-10T06:06:24.108Z,979.22
2023-10-10T06:07:24.078Z,979.19
2023-10-10T06:08:24.110Z,979.19
2023-10-10T06:09:24.056Z,979.22
2023-10-10T06:10:24.047Z,979.23
2023-10-10T06:11:24.082Z,979.22
2023-10-10T06:12:24.026Z,979.23
2023-10-10T06:13:24.025Z,979.24
2023-10-10T06:14:24.045Z,979.26
2023-10-10T06:15:23.995Z,979.24
2023-10-10T06:16:24.074Z,979.24
2023-10-10T06:17:24.130Z,979.24
2023-10-10T06:18:24.036Z,979.24
2023-10-10T06:19:23.952Z,979.25
2023-10-10T06:20:23.955Z,979.25
2023-10-10T06:21:23.929Z,979.27
2023-10-10T06:22:23.919Z,979.24
2023-10-10T06:23:23.992Z,979.23
2023-10-10T06:24:23.926Z,979.26
2023-10-10T06:25:23.889Z,979.28
2023-10-10T06:26:23.900Z,979.26
2023-10-10T06:27:26.262Z,979.27
2023-10-10T06:28:23.903Z,979.30
2023-10-10T06:29:23.856Z,979.24
2023-10-10T06:30:23.842Z,979.23
2023-10-10T06:31:23.878Z,979.25
2023-10-10T06:32:23.892Z,979.23
2023-10-10T06:33:23.878Z,979.19
2023-10-10T06:34:24.126Z,979.21
2023-10-10T06:35:23.806Z,979.22
2023-10-10T06:36:24.220Z,979.23
2023-10-10T06:37:23.764Z,979.21
2023-10-10T06:38:23.781Z,979.20
2023-10-10T06:39:23.746Z,979.21
2023-10-10T06:40:23.756Z,979.19
2023-10-10T06:41:23.784Z,979.24
2023-10-10T06:42:23.719Z,979.22
2023-10-10T06:43:23.702Z,979.24
2023-10-10T06:44:23.737Z,979.28
2023-10-10T06:45:23.680Z,979.27
2023-10-10T06:46:23.674Z,979.22
2023-10-10T06:47:23.687Z,979.28
2023-10-10T06:48:23.695Z,979.28
2023-10-10T06:49:23.661Z,979.31
2023-10-10T06:50:23.646Z,979.32
2023-10-10T06:51:23.616Z,979.33
2023-10-10T06:52:23.612Z,979.33
2023-10-10T06:53:23.666Z,979.31
2023-10-10T06:54:23.590Z,979.31
2023-10-10T06:55:23.581Z,979.29
2023-10-10T06:56:23.626Z,979.30
2023-10-10T06:57:23.570Z,979.32
2023-10-10T06:58:23.552Z,979.34
2023-10-10T06:59:23.562Z,979.34
2023-10-10T07:00:23.580Z,979.34
2023-10-10T07:01:23.559Z,979.39
2023-10-10T07:02:23.521Z,979.32
2023-10-10T07:03:23.538Z,979.33
2023-10-10T07:04:23.512Z,979.33
2023-10-10T07:05:23.516Z,979.37
2023-10-10T07:06:23.483Z,979.32
2023-10-10T07:07:23.469Z,979.35
2023-10-10T07:08:23.488Z,979.33
2023-10-10T07:09:23.448Z,979.30
2023-10-10T07:10:23.430Z,979.31
2023-10-10T07:11:23.459Z,979.31
2023-10-10T07:12:23.433Z,979.32
2023-10-10T07:13:23.402Z,979.35
2023-10-10T07:14:23.424Z,979.34
2023-10-10T07:15:23.430Z,979.33
2023-10-10T07:16:23.413Z,979.34
2023-10-10T07:17:23.409Z,979.35
2023-10-10T07:18:23.566Z,979.35
2023-10-10T07:19:23.349Z,979.37
2023-10-10T07:20:23.358Z,979.35
2023-10-10T07:21:23.327Z,979.36
2023-10-10T07:22:23.319Z,979.36
2023-10-10T07:23:23.336Z,979.39
2023-10-10T07:24:24.307Z,979.40
2023-10-10T07:25:23.326Z,979.35
2023-10-10T07:26:23.298Z,979.37
2023-10-10T07:27:24.117Z,979.37
2023-10-10T07:28:23.290Z,979.38
2023-10-10T07:29:23.336Z,979.39
2023-10-10T07:30:23.244Z,979.39
2023-10-10T07:31:23.353Z,979.38
2023-10-10T07:32:23.244Z,979.37
2023-10-10T07:33:23.297Z,979.43
2023-10-10T07:34:23.210Z,979.45
2023-10-10T07:35:23.243Z,979.41
2023-10-10T07:36:23.195Z,979.42
2023-10-10T07:37:23.180Z,979.42
2023-10-10T07:38:23.187Z,979.44
2023-10-10T07:39:23.162Z,979.42
2023-10-10T07:40:23.155Z,979.45
2023-10-10T07:41:23.190Z,979.43
2023-10-10T07:42:23.137Z,979.42
2023-10-10T07:43:23.126Z,979.42
2023-10-10T07:44:23.173Z,979.41
2023-10-10T07:45:23.109Z,979.38
2023-10-10T07:46:23.155Z,979.43
2023-10-10T07:47:23.140Z,979.40
2023-10-10T07:48:23.151Z,979.41
2023-10-10T07:49:23.074Z,979.38
2023-10-10T07:50:23.100Z,979.37
2023-10-10T07:51:23.056Z,979.39
2023-10-10T07:52:23.050Z,979.42
2023-10-10T07:53:23.062Z,979.40
2023-10-10T07:54:23.032Z,979.42
2023-10-10T07:55:23.024Z,979.41
2023-10-10T07:56:23.032Z,979.41
2023-10-10T07:57:23.011Z,979.41
2023-10-10T07:58:28.607Z,979.39
2023-10-10T07:59:23.066Z,979.37
2023-10-10T08:00:23.005Z,979.39
2023-10-10T08:01:22.983Z,979.33
2023-10-10T08:02:22.991Z,979.38
2023-10-10T08:03:23.004Z,979.34
2023-10-10T08:04:23.173Z,979.35
2023-10-10T08:05:22.946Z,979.35
2023-10-10T08:06:23.590Z,979.39
2023-10-10T08:07:22.923Z,979.37
2023-10-10T08:08:22.949Z,979.36
2023-10-10T08:09:22.905Z,979.37
2023-10-10T08:10:22.913Z,979.38
2023-10-10T08:11:22.921Z,979.37
2023-10-10T08:12:22.882Z,979.36
2023-10-10T08:13:22.874Z,979.38
2023-10-10T08:14:22.914Z,979.40
2023-10-10T08:15:22.860Z,979.42
2023-10-10T08:16:22.938Z,979.44
2023-10-10T08:17:22.926Z,979.39
2023-10-10T08:18:22.949Z,979.37
2023-10-10T08:19:22.828Z,979.37
2023-10-10T08:20:22.912Z,979.38
2023-10-10T08:21:22.810Z,979.35
2023-10-10T08:22:22.805Z,979.40
2023-10-10T08:23:22.816Z,979.38
2023-10-10T08:24:22.791Z,979.38
2023-10-10T08:25:22.785Z,979.40
2023-10-10T08:26:23.054Z,979.39
2023-10-10T08:27:22.767Z,979.38
2023-10-10T08:28:22.762Z,979.38
2023-10-10T08:29:22.785Z,979.38
2023-10-10T08:30:22.754Z,979.37
2023-10-10T08:31:22.789Z,979.35
2023-10-10T08:32:22.906Z,979.30
2023-10-10T08:33:22.833Z,979.35
2023-10-10T08:34:23.552Z,979.30
2023-10-10T08:35:22.740Z,979.33
2023-10-10T08:36:22.705Z,979.32
2023-10-10T08:37:22.693Z,979.32
2023-10-10T08:38:22.687Z,979.36
2023-10-10T08:39:22.678Z,979.33
2023-10-10T08:40:22.675Z,979.35
2023-10-10T08:41:22.682Z,979.33
2023-10-10T08:42:23.665Z,979.33
2023-10-10T08:43:22.652Z,979.32
2023-10-10T08:44:22.681Z,979.33
2023-10-10T08:45:22.638Z,979.36
2023-10-10T08:46:22.695Z,979.32
2023-10-10T08:47:22.675Z,979.32
2023-10-10T08:48:22.699Z,979.33
2023-10-10T08:49:22.613Z,979.33
2023-10-10T08:50:22.620Z,979.33
2023-10-10T08:51:22.595Z,979.33
2023-10-10T08:52:22.592Z,979.32
2023-10-10T08:53:22.655Z,979.33
2023-10-10T08:54:22.716Z,979.32
2023-10-10T08:55:22.580Z,979.32
2023-10-10T08:56:22.649Z,979.31
2023-10-10T08:57:22.560Z,979.27
2023-10-10T08:58:22.550Z,979.31
2023-10-10T08:59:22.633Z,979.28
2023-10-10T09:00:22.594Z,979.32
2023-10-10T09:01:22.590Z,979.32
2023-10-10T09:02:22.598Z,979.29
2023-10-10T09:03:22.621Z,979.32
2023-10-10T09:04:22.626Z,979.28
2023-10-10T09:05:22.509Z,979.27
2023-10-10T09:06:22.515Z,979.29
2023-10-10T09:07:22.488Z,979.23
2023-10-10T09:08:22.496Z,979.24
2023-10-10T09:09:22.479Z,979.26
2023-10-10T09:10:22.473Z,979.25
2023-10-10T09:11:22.570Z,979.23
2023-10-10T09:12:22.456Z,979.19
2023-10-10T09:13:22.450Z,979.23
2023-10-10T09:14:22.455Z,979.24
2023-10-10T09:15:22.443Z,979.25
2023-10-10T09:16:22.451Z,979.26
2023-10-10T09:17:22.449Z,979.27
2023-10-10T09:18:22.470Z,979.28
2023-10-10T09:19:22.414Z,979.27
2023-10-10T09:20:22.484Z,979.26
2023-10-10T09:21:22.460Z,979.27
2023-10-10T09:22:22.389Z,979.28
2023-10-10T09:23:22.401Z,979.22
2023-10-10T09:24:22.376Z,979.26
2023-10-10T09:25:22.375Z,979.25
2023-10-10T09:26:22.403Z,979.25
2023-10-10T09:27:22.362Z,979.27
2023-10-10T09:28:22.355Z,979.26
2023-10-10T09:29:22.415Z,979.23
2023-10-10T09:30:22.357Z,979.24
2023-10-10T09:31:22.340Z,979.26
2023-10-10T09:32:22.371Z,979.23
2023-10-10T09:33:22.397Z,979.28
2023-10-10T09:34:22.313Z,979.24
2023-10-10T09:35:22.405Z,979.28
2023-10-10T09:36:22.330Z,979.23
2023-10-10T09:37:22.305Z,979.25
2023-10-10T09:38:22.336Z,979.27
2023-10-10T09:39:22.299Z,979.27
2023-10-10T09:40:22.280Z,979.24
2023-10-10T09:41:22.311Z,979.21
2023-10-10T09:42:22.266Z,979.25
2023-10-10T09:43:22.264Z,979.22
2023-10-10T09:44:22.413Z,979.22
2023-10-10T09:45:22.253Z,979.21
2023-10-10T09:46:22.262Z,979.16
2023-10-10T09:47:22.245Z,979.17
2023-10-10T09:48:22.254Z,979.21
2023-10-10T09:49:22.239Z,979.19
2023-10-10T09:50:22.244Z,979.21
2023-10-10T09:51:22.218Z,979.18
2023-10-10T09:52:22.233Z,979.18
2023-10-10T09:53:22.309Z,979.18
2023-10-10T09:54:22.280Z,979.18
2023-10-10T09:55:22.198Z,979.19
2023-10-10T09:56:22.243Z,979.23
2023-10-10T09:57:22.187Z,979.24
2023-10-10T09:58:22.181Z,979.24
2023-10-10T09:59:22.333Z,979.16
2023-10-10T10:00:27.676Z,979.19
2023-10-10T10:01:22.189Z,979.20
2023-10-10T10:02:22.194Z,979.18
2023-10-10T10:03:22.172Z,979.23
2023-10-10T10:04:22.151Z,979.20
2023-10-10T10:05:22.169Z,979.22
2023-10-10T10:06:22.139Z,979.18
2023-10-10T10:07:22.138Z,979.22
2023-10-10T10:08:22.188Z,979.20
2023-10-10T10:09:22.128Z,979.20
2023-10-10T10:10:22.125Z,979.21
2023-10-10T10:11:22.128Z,979.20
2023-10-10T10:12:22.109Z,979.22
2023-10-10T10:13:22.105Z,979.23
2023-10-10T10:14:22.628Z,979.23
2023-10-10T10:15:22.100Z,979.23
2023-10-10T10:16:22.117Z,979.24
2023-10-10T10:17:22.195Z,979.24
2023-10-10T10:18:22.114Z,979.23
2023-10-10T10:19:22.079Z,979.20
2023-10-10T10:20:22.094Z,979.20
2023-10-10T10:21:22.067Z,979.22
2023-10-10T10:22:22.057Z,979.20
2023-10-10T10:23:22.074Z,979.21
2023-10-10T10:24:22.072Z,979.21
2023-10-10T10:25:22.046Z,979.19
2023-10-10T10:26:22.122Z,979.20
2023-10-10T10:27:22.034Z,979.23
2023-10-10T10:28:22.034Z,979.29
2023-10-10T10:29:22.097Z,979.29
2023-10-10T10:30:22.016Z,979.30
2023-10-10T10:31:22.023Z,979.32
2023-10-10T10:32:22.034Z,979.30
2023-10-10T10:33:22.021Z,979.30
2023-10-10T10:34:21.996Z,979.33
2023-10-10T10:35:22.052Z,979.32
2023-10-10T10:36:22.060Z,979.31
2023-10-10T10:37:22.025Z,979.31
2023-10-10T10:38:22.019Z,979.29
2023-10-10T10:39:21.997Z,979.30
2023-10-10T10:40:22.007Z,979.26
2023-10-10T10:41:22.005Z,979.28
2023-10-10T10:42:22.020Z,979.27
2023-10-10T10:43:21.985Z,979.29
2023-10-10T10:44:21.958Z,979.28
2023-10-10T10:45:21.954Z,979.26
2023-10-10T10:46:22.443Z,979.23
2023-10-10T10:47:21.956Z,979.23
2023-10-10T10:48:21.975Z,979.18
2023-10-10T10:49:21.937Z,979.23
2023-10-10T10:50:21.978Z,979.23
2023-10-10T10:51:21.926Z,979.21
2023-10-10T10:52:21.913Z,979.22
2023-10-10T10:53:22.028Z,979.20
2023-10-10T10:54:21.902Z,979.16
2023-10-10T10:55:21.901Z,979.16
2023-10-10T10:56:22.033Z,979.16
2023-10-10T10:57:25.521Z,979.12
2023-10-10T10:58:22.088Z,979.08
2023-10-10T10:59:22.200Z,979.05
2023-10-10T11:00:21.909Z,979.09
2023-10-10T11:01:21.898Z,979.09
2023-10-10T11:02:21.890Z,979.05
2023-10-10T11:03:21.954Z,979.04
2023-10-10T11:04:21.859Z,979.00
2023-10-10T11:05:21.917Z,979.02
2023-10-10T11:06:21.844Z,979.02
2023-10-10T11:07:21.848Z,979.04
2023-10-10T11:08:21.856Z,978.98
2023-10-10T11:09:22.085Z,979.01
2023-10-10T11:10:21.830Z,979.00
2023-10-10T11:11:21.843Z,978.94
2023-10-10T11:12:21.844Z,978.93
2023-10-10T11:13:21.827Z,978.87
2023-10-10T11:14:21.847Z,978.88
2023-10-10T11:15:21.828Z,978.86
2023-10-10T11:16:21.825Z,978.85
2023-10-10T11:17:21.856Z,978.81
2023-10-10T11:18:23.359Z,978.82
2023-10-10T11:19:21.797Z,978.79
2023-10-10T11:20:21.898Z,978.78
2023-10-10T11:21:21.789Z,978.80
2023-10-10T11:22:21.784Z,978.74
2023-10-10T11:23:24.111Z,978.76
2023-10-10T11:24:21.776Z,978.78
2023-10-10T11:25:21.792Z,978.78
2023-10-10T11:26:21.803Z,978.73
2023-10-10T11:27:21.771Z,978.71
2023-10-10T11:28:22.115Z,978.70
2023-10-10T11:29:21.771Z,978.68
2023-10-10T11:30:21.757Z,978.69
2023-10-10T11:31:21.776Z,978.69
2023-10-10T11:32:21.765Z,978.62
2023-10-10T11:33:21.829Z,978.67
2023-10-10T11:34:21.743Z,978.65
2023-10-10T11:35:21.760Z,978.62
2023-10-10T11:36:21.738Z,978.61
2023-10-10T11:37:24.842Z,978.59
2023-10-10T11:38:21.765Z,978.58
2023-10-10T11:39:21.729Z,978.56
2023-10-10T11:40:21.729Z,978.51
2023-10-10T11:41:21.770Z,978.53
2023-10-10T11:42:21.718Z,978.52
2023-10-10T11:43:21.720Z,978.48
2023-10-10T11:44:21.768Z,978.50
2023-10-10T11:45:21.763Z,978.46
2023-10-10T11:46:21.806Z,978.48
2023-10-10T11:47:21.716Z,978.45
2023-10-10T11:48:21.746Z,978.48
2023-10-10T11:49:21.699Z,978.44
2023-10-10T11:50:21.716Z,978.43
2023-10-10T11:51:21.695Z,978.44
2023-10-10T11:52:21.704Z,978.42
2023-10-10T11:53:21.722Z,978.43
2023-10-10T11:54:21.683Z,978.43
2023-10-10T11:55:21.705Z,978.43
2023-10-10T11:56:21.687Z,978.37
2023-10-10T11:57:21.679Z,978.35
2023-10-10T11:58:21.672Z,978.38
2023-10-10T11:59:21.717Z,978.37
2023-10-10T12:00:27.546Z,978.33
2023-10-10T12:01:21.789Z,978.32
2023-10-10T12:02:21.667Z,978.30
2023-10-10T12:03:21.828Z,978.29
2023-10-10T12:04:21.762Z,978.27
2023-10-10T12:05:21.686Z,978.27
2023-10-10T12:06:21.651Z,978.25
2023-10-10T12:07:21.657Z,978.22
2023-10-10T12:08:21.668Z,978.24
2023-10-10T12:09:21.645Z,978.22
2023-10-10T12:10:21.641Z,978.20
2023-10-10T12:11:21.957Z,978.21
2023-10-10T12:12:22.885Z,978.18
2023-10-10T12:13:21.645Z,978.17
2023-10-10T12:14:21.641Z,978.18
2023-10-10T12:15:21.678Z,978.17
2023-10-10T12:17:21.683Z,978.15
2023-10-10T12:18:21.698Z,978.15
2023-10-10T12:19:21.630Z,978.16
2023-10-10T12:20:21.669Z,978.15
2023-10-10T12:21:21.613Z,978.13
2023-10-10T12:22:21.617Z,978.14
2023-10-10T12:23:21.655Z,978.10
2023-10-10T12:24:21.629Z,978.13
2023-10-10T12:25:21.603Z,978.11
2023-10-10T12:26:21.615Z,978.11
2023-10-10T12:27:21.595Z,978.09
2023-10-10T12:28:21.633Z,978.11
2023-10-10T12:29:22.930Z,978.08
2023-10-10T12:30:21.620Z,978.06
2023-10-10T12:31:21.612Z,978.07